createdAt,value
2023-04-14T00:00:49.453Z,0.00
2023-04-14T00:01:49.511Z,0.00
2023-04-14T00:02:49.522Z,0.00
2023-04-14T00:03:49.653Z,0.00
2023-04-14T00:04:49.593Z,0.00
2023-04-14T00:05:49.466Z,0.00
2023-04-14T00:06:49.469Z,0.00
2023-04-14T00:07:49.468Z,0.00
2023-04-14T00:08:49.469Z,0.00
2023-04-14T00:09:49.475Z,0.00
2023-04-14T00:10:49.470Z,0.00
2023-04-14T00:11:49.476Z,0.00
2023-04-14T00:12:49.480Z,0.00
2023-04-14T00:13:49.477Z,0.00
2023-04-14T00:14:49.503Z,0.00
2023-04-14T00:15:49.488Z,0.00
2023-04-14T00:16:49.556Z,0.00
2023-04-14T00:17:49.559Z,0.00
2023-04-14T00:18:49.492Z,0.00
2023-04-14T00:19:49.490Z,0.00
2023-04-14T00:20:49.489Z,0.00
2023-04-14T00:21:49.494Z,0.00
2023-04-14T00:22:49.497Z,0.00
2023-04-14T00:23:49.494Z,0.00
2023-04-14T00:24:49.494Z,0.00
2023-04-14T00:25:49.499Z,0.00
2023-04-14T00:26:49.504Z,0.00
2023-04-14T00:27:49.506Z,0.00
2023-04-14T00:28:49.503Z,0.00
2023-04-14T00:29:49.505Z,0.00
2023-04-14T00:30:49.588Z,0.00
2023-04-14T00:31:49.514Z,0.00
2023-04-14T00:32:49.576Z,0.00
2023-04-14T00:33:49.518Z,0.00
2023-04-14T00:34:49.518Z,0.00
2023-04-14T00:35:49.520Z,0.00
2023-04-14T00:36:49.522Z,0.00
2023-04-14T00:37:49.519Z,0.00
2023-04-14T00:38:49.523Z,0.00
2023-04-14T00:39:49.519Z,0.00
2023-04-14T00:40:49.524Z,0.00
2023-04-14T00:41:49.527Z,0.00
2023-04-14T00:42:49.534Z,0.00
2023-04-14T00:43:49.530Z,0.00
2023-04-14T00:44:49.534Z,0.00
2023-04-14T00:45:49.542Z,0.00
2023-04-14T00:46:49.597Z,0.00
2023-04-14T00:47:49.573Z,0.00
2023-04-14T00:48:49.544Z,0.00
2023-04-14T00:49:49.538Z,0.00
2023-04-14T00:50:49.541Z,0.00
2023-04-14T00:51:49.549Z,0.00
2023-04-14T00:52:49.547Z,0.00
2023-04-14T00:53:49.548Z,0.00
2023-04-14T00:54:49.554Z,0.00
2023-04-14T00:55:49.555Z,0.00
2023-04-14T00:56:49.557Z,0.00
2023-04-14T00:57:49.571Z,0.00
2023-04-14T00:58:49.555Z,0.00
2023-04-14T00:59:49.579Z,0.00
2023-04-14T01:00:49.562Z,0.00
2023-04-14T01:01:49.662Z,0.00
2023-04-14T01:02:49.775Z,0.00
2023-04-14T01:03:49.724Z,0.00
2023-04-14T01:04:54.348Z,0.00
2023-04-14T01:05:49.578Z,0.00
2023-04-14T01:06:49.575Z,0.00
2023-04-14T01:07:49.571Z,0.00
2023-04-14T01:08:49.573Z,0.00
2023-04-14T01:09:49.581Z,0.00
2023-04-14T01:10:49.585Z,0.00
2023-04-14T01:11:49.633Z,0.00
2023-04-14T01:12:49.579Z,0.00
2023-04-14T01:13:49.583Z,0.00
2023-04-14T01:14:49.591Z,0.00
2023-04-14T01:15:49.616Z,0.00
2023-04-14T01:16:49.635Z,0.00
2023-04-14T01:17:49.622Z,0.00
2023-04-14T01:18:49.618Z,0.00
2023-04-14T01:19:49.596Z,0.00
2023-04-14T01:20:49.596Z,0.00
2023-04-14T01:21:49.606Z,0.00
2023-04-14T01:22:49.598Z,0.00
2023-04-14T01:23:49.620Z,0.00
2023-04-14T01:24:49.622Z,0.00
2023-04-14T01:25:49.619Z,0.00
2023-04-14T01:26:49.604Z,0.00
2023-04-14T01:27:49.612Z,0.00
2023-04-14T01:28:49.608Z,0.00
2023-04-14T01:29:49.613Z,0.00
2023-04-14T01:30:49.632Z,0.00
2023-04-14T01:31:49.664Z,0.00
2023-04-14T01:32:49.811Z,0.00
2023-04-14T01:33:49.617Z,0.00
2023-04-14T01:34:49.655Z,0.00
2023-04-14T01:35:49.629Z,0.00
2023-04-14T01:36:49.622Z,0.00
2023-04-14T01:37:49.627Z,0.00
2023-04-14T01:38:49.625Z,0.00
2023-04-14T01:39:49.640Z,0.00
2023-04-14T01:40:49.638Z,0.00
2023-04-14T01:41:49.637Z,0.00
2023-04-14T01:42:49.646Z,0.00
2023-04-14T01:43:49.634Z,0.00
2023-04-14T01:44:49.645Z,0.00
2023-04-14T01:45:49.661Z,0.00
2023-04-14T01:46:49.942Z,0.00
2023-04-14T01:47:49.671Z,0.00
2023-04-14T01:48:49.647Z,0.00
2023-04-14T01:49:49.701Z,0.00
2023-04-14T01:50:49.678Z,0.00
2023-04-14T01:51:49.654Z,0.00
2023-04-14T01:52:49.655Z,0.00
2023-04-14T01:53:49.666Z,0.00
2023-04-14T01:54:49.665Z,0.00
2023-04-14T01:55:49.665Z,0.00
2023-04-14T01:56:49.663Z,0.00
2023-04-14T01:57:49.701Z,0.00
2023-04-14T01:58:49.665Z,0.00
2023-04-14T01:59:49.663Z,0.00
2023-04-14T02:00:49.690Z,0.00
2023-04-14T02:01:49.809Z,0.00
2023-04-14T02:02:49.855Z,0.00
2023-04-14T02:03:49.846Z,0.00
2023-04-14T02:04:49.674Z,0.00
2023-04-14T02:05:49.681Z,0.00
2023-04-14T02:06:49.702Z,0.00
2023-04-14T02:07:49.689Z,0.00
2023-04-14T02:08:49.686Z,0.00
2023-04-14T02:09:49.708Z,0.00
2023-04-14T02:10:49.694Z,0.00
2023-04-14T02:11:49.689Z,0.00
2023-04-14T02:12:49.696Z,0.00
2023-04-14T02:13:49.693Z,0.00
2023-04-14T02:14:49.692Z,0.00
2023-04-14T02:15:49.692Z,0.00
2023-04-14T02:16:49.774Z,0.00
2023-04-14T02:17:49.822Z,0.00
2023-04-14T02:18:49.705Z,0.00
2023-04-14T02:19:49.704Z,0.00
2023-04-14T02:20:49.701Z,0.00
2023-04-14T02:21:49.701Z,0.00
2023-04-14T02:22:49.753Z,0.00
2023-04-14T02:23:49.704Z,0.00
2023-04-14T02:24:49.706Z,0.00
2023-04-14T02:25:49.706Z,0.00
2023-04-14T02:26:49.710Z,0.00
2023-04-14T02:27:49.720Z,0.00
2023-04-14T02:28:49.719Z,0.00
2023-04-14T02:29:49.720Z,0.00
2023-04-14T02:30:49.726Z,0.00
2023-04-14T02:31:49.784Z,0.00
2023-04-14T02:32:49.746Z,0.00
2023-04-14T02:33:49.718Z,0.00
2023-04-14T02:34:49.724Z,0.00
2023-04-14T02:35:49.727Z,0.00
2023-04-14T02:36:49.778Z,0.00
2023-04-14T02:37:49.728Z,0.00
2023-04-14T02:38:49.771Z,0.00
2023-04-14T02:39:49.732Z,0.00
2023-04-14T02:40:49.749Z,0.00
2023-04-14T02:41:49.749Z,0.00
2023-04-14T02:42:49.745Z,0.00
2023-04-14T02:43:49.748Z,0.00
2023-04-14T02:44:49.742Z,0.00
2023-04-14T02:45:49.776Z,0.00
2023-04-14T02:46:49.746Z,0.00
2023-04-14T02:47:49.767Z,0.00
2023-04-14T02:48:49.751Z,0.00
2023-04-14T02:49:49.762Z,0.00
2023-04-14T02:50:49.753Z,0.00
2023-04-14T02:51:49.760Z,0.00
2023-04-14T02:52:49.762Z,0.00
2023-04-14T02:53:49.762Z,0.00
2023-04-14T02:54:49.794Z,0.00
2023-04-14T02:55:49.771Z,0.00
2023-04-14T02:56:49.819Z,0.00
2023-04-14T02:57:49.771Z,0.00
2023-04-14T02:58:49.771Z,0.00
2023-04-14T02:59:49.775Z,0.00
2023-04-14T03:00:49.774Z,0.00
2023-04-14T03:01:49.862Z,0.00
2023-04-14T03:02:49.825Z,0.00
2023-04-14T03:03:49.847Z,0.00
2023-04-14T03:04:49.789Z,0.00
2023-04-14T03:05:49.785Z,0.00
2023-04-14T03:06:49.783Z,0.00
2023-04-14T03:07:49.787Z,0.00
2023-04-14T03:08:49.784Z,0.00
2023-04-14T03:09:49.793Z,0.00
2023-04-14T03:10:49.812Z,0.00
2023-04-14T03:11:49.795Z,0.00
2023-04-14T03:12:49.797Z,0.00
2023-04-14T03:13:49.805Z,0.00
2023-04-14T03:14:49.807Z,0.00
2023-04-14T03:15:49.828Z,0.00
2023-04-14T03:16:51.124Z,0.00
2023-04-14T03:17:49.842Z,0.00
2023-04-14T03:18:49.814Z,0.00
2023-04-14T03:19:49.806Z,0.00
2023-04-14T03:20:49.806Z,0.00
2023-04-14T03:21:49.860Z,0.00
2023-04-14T03:22:49.812Z,0.00
2023-04-14T03:23:49.810Z,0.00
2023-04-14T03:24:49.813Z,0.00
2023-04-14T03:25:49.822Z,0.00
2023-04-14T03:26:50.140Z,0.00
2023-04-14T03:27:49.821Z,0.00
2023-04-14T03:28:49.823Z,0.00
2023-04-14T03:29:49.819Z,0.00
2023-04-14T03:30:49.829Z,0.00
2023-04-14T03:31:49.864Z,0.00
2023-04-14T03:32:49.846Z,0.00
2023-04-14T03:33:49.836Z,0.00
2023-04-14T03:34:49.836Z,0.00
2023-04-14T03:35:49.862Z,0.00
2023-04-14T03:36:49.883Z,0.00
2023-04-14T03:37:49.840Z,0.00
2023-04-14T03:38:49.860Z,0.00
2023-04-14T03:39:49.841Z,0.00
2023-04-14T03:40:49.841Z,0.00
2023-04-14T03:41:50.139Z,4.00
2023-04-14T03:42:49.872Z,4.00
2023-04-14T03:43:49.846Z,4.00
2023-04-14T03:44:49.871Z,4.00
2023-04-14T03:45:49.845Z,4.00
2023-04-14T03:46:49.896Z,4.00
2023-04-14T03:47:49.898Z,4.00
2023-04-14T03:48:49.850Z,4.00
2023-04-14T03:49:49.855Z,0.00
2023-04-14T03:50:49.884Z,0.00
2023-04-14T03:51:49.857Z,0.00
2023-04-14T03:52:49.857Z,0.00
2023-04-14T03:53:49.861Z,0.00
2023-04-14T03:54:49.861Z,0.00
2023-04-14T03:55:49.865Z,0.00
2023-04-14T03:56:49.868Z,0.00
2023-04-14T03:57:49.868Z,0.00
2023-04-14T03:58:49.889Z,0.00
2023-04-14T03:59:49.869Z,0.00
2023-04-14T04:00:49.875Z,4.00
2023-04-14T04:01:49.956Z,4.00
2023-04-14T04:02:50.071Z,4.00
2023-04-14T04:03:50.096Z,4.00
2023-04-14T04:04:50.014Z,4.00
2023-04-14T04:05:49.882Z,4.00
2023-04-14T04:06:49.891Z,4.00
2023-04-14T04:07:49.889Z,4.00
2023-04-14T04:08:49.886Z,4.00
2023-04-14T04:09:49.891Z,0.00
2023-04-14T04:10:49.901Z,0.00
2023-04-14T04:11:49.895Z,0.00
2023-04-14T04:12:50.045Z,0.00
2023-04-14T04:13:49.893Z,0.00
2023-04-14T04:14:49.928Z,0.00
2023-04-14T04:15:49.905Z,0.00
2023-04-14T04:16:49.973Z,4.00
2023-04-14T04:17:49.948Z,4.00
2023-04-14T04:18:49.902Z,4.00
2023-04-14T04:19:49.908Z,4.00
2023-04-14T04:20:49.902Z,4.00
2023-04-14T04:21:49.906Z,4.00
2023-04-14T04:22:49.908Z,4.00
2023-04-14T04:23:49.911Z,4.00
2023-04-14T04:24:49.913Z,4.00
2023-04-14T04:25:49.912Z,4.00
2023-04-14T04:26:49.925Z,4.00
2023-04-14T04:27:49.933Z,4.00
2023-04-14T04:28:49.921Z,0.00
2023-04-14T04:29:49.931Z,4.00
2023-04-14T04:30:49.952Z,4.00
2023-04-14T04:31:49.973Z,4.00
2023-04-14T04:32:50.003Z,4.00
2023-04-14T04:33:49.930Z,4.00
2023-04-14T04:34:49.927Z,4.00
2023-04-14T04:35:49.938Z,4.00
2023-04-14T04:36:49.939Z,4.00
2023-04-14T04:37:49.955Z,20.00
2023-04-14T04:38:49.958Z,20.00
2023-04-14T04:39:49.958Z,16.00
2023-04-14T04:40:49.948Z,20.00
2023-04-14T04:41:49.952Z,20.00
2023-04-14T04:42:49.960Z,20.00
2023-04-14T04:43:49.948Z,24.00
2023-04-14T04:44:49.944Z,20.00
2023-04-14T04:45:49.982Z,24.00
2023-04-14T04:46:49.971Z,24.00
2023-04-14T04:47:49.982Z,24.00
2023-04-14T04:48:49.950Z,24.00
2023-04-14T04:49:49.951Z,24.00
2023-04-14T04:50:49.964Z,24.00
2023-04-14T04:51:49.978Z,24.00
2023-04-14T04:52:49.974Z,24.00
2023-04-14T04:53:49.964Z,24.00
2023-04-14T04:54:49.959Z,24.00
2023-04-14T04:55:49.961Z,28.00
2023-04-14T04:56:49.970Z,24.00
2023-04-14T04:57:49.981Z,24.00
2023-04-14T04:58:49.968Z,24.00
2023-04-14T04:59:49.969Z,24.00
2023-04-14T05:00:49.976Z,28.00
2023-04-14T05:01:50.035Z,28.00
2023-04-14T05:02:50.141Z,28.00
2023-04-14T05:03:49.982Z,24.00
2023-04-14T05:04:50.128Z,28.00
2023-04-14T05:05:49.984Z,28.00
2023-04-14T05:06:49.980Z,28.00
2023-04-14T05:07:49.985Z,28.00
2023-04-14T05:08:49.986Z,28.00
2023-04-14T05:09:49.997Z,28.00
2023-04-14T05:10:50.007Z,28.00
2023-04-14T05:11:50.010Z,28.00
2023-04-14T05:12:50.047Z,28.00
2023-04-14T05:13:50.009Z,28.00
2023-04-14T05:14:49.996Z,28.00
2023-04-14T05:15:50.058Z,28.00
2023-04-14T05:16:50.022Z,28.00
2023-04-14T05:17:50.074Z,28.00
2023-04-14T05:18:50.026Z,28.00
2023-04-14T05:19:50.024Z,28.00
2023-04-14T05:20:50.016Z,28.00
2023-04-14T05:21:50.010Z,28.00
2023-04-14T05:22:50.092Z,28.00
2023-04-14T05:23:50.022Z,32.00
2023-04-14T05:24:50.029Z,32.00
2023-04-14T05:25:50.016Z,28.00
2023-04-14T05:27:09.462Z,28.00
2023-04-14T05:27:50.017Z,28.00
2023-04-14T05:28:50.024Z,28.00
2023-04-14T05:29:50.059Z,28.00
2023-04-14T05:30:50.117Z,28.00
2023-04-14T05:31:50.041Z,32.00
2023-04-14T05:32:50.067Z,32.00
2023-04-14T05:33:50.048Z,32.00
2023-04-14T05:34:50.389Z,32.00
2023-04-14T05:35:50.039Z,32.00
2023-04-14T05:36:50.051Z,32.00
2023-04-14T05:37:50.032Z,28.00
2023-04-14T05:38:50.045Z,32.00
2023-04-14T05:39:50.042Z,32.00
2023-04-14T05:40:50.041Z,32.00
2023-04-14T05:41:50.045Z,32.00
2023-04-14T05:42:50.049Z,32.00
2023-04-14T05:43:50.051Z,32.00
2023-04-14T05:44:50.047Z,32.00
2023-04-14T05:45:50.044Z,36.00
2023-04-14T05:46:50.137Z,36.00
2023-04-14T05:47:50.061Z,36.00
2023-04-14T05:48:50.053Z,36.00
2023-04-14T05:49:50.056Z,36.00
2023-04-14T05:50:50.076Z,36.00
2023-04-14T05:51:50.058Z,32.00
2023-04-14T05:52:50.052Z,32.00
2023-04-14T05:53:50.061Z,36.00
2023-04-14T05:54:50.067Z,36.00
2023-04-14T05:55:50.069Z,36.00
2023-04-14T05:56:50.079Z,36.00
2023-04-14T05:57:50.064Z,32.00
2023-04-14T05:58:50.075Z,36.00
2023-04-14T05:59:50.071Z,36.00
2023-04-14T06:00:50.072Z,36.00
2023-04-14T06:01:50.206Z,36.00
2023-04-14T06:02:50.226Z,40.00
2023-04-14T06:03:50.208Z,36.00
2023-04-14T06:04:50.279Z,36.00
2023-04-14T06:05:50.077Z,36.00
2023-04-14T06:06:50.098Z,40.00
2023-04-14T06:07:50.085Z,36.00
2023-04-14T06:08:50.092Z,40.00
2023-04-14T06:09:50.081Z,36.00
2023-04-14T06:10:50.088Z,36.00
2023-04-14T06:11:50.089Z,40.00
2023-04-14T06:12:50.089Z,40.00
2023-04-14T06:13:50.097Z,40.00
2023-04-14T06:14:50.092Z,40.00
2023-04-14T06:15:50.104Z,44.00
2023-04-14T06:16:50.115Z,40.00
2023-04-14T06:17:50.107Z,40.00
2023-04-14T06:18:50.105Z,44.00
2023-04-14T06:19:50.109Z,44.00
2023-04-14T06:20:50.099Z,44.00
2023-04-14T06:21:50.115Z,44.00
2023-04-14T06:22:50.125Z,44.00
2023-04-14T06:23:50.102Z,44.00
2023-04-14T06:24:50.106Z,44.00
2023-04-14T06:25:50.106Z,40.00
2023-04-14T06:26:50.109Z,40.00
2023-04-14T06:27:50.110Z,44.00
2023-04-14T06:28:50.111Z,44.00
2023-04-14T06:29:50.115Z,44.00
2023-04-14T06:30:50.113Z,44.00
2023-04-14T06:31:50.161Z,44.00
2023-04-14T06:32:50.153Z,44.00
2023-04-14T06:33:50.119Z,44.00
2023-04-14T06:34:51.340Z,44.00
2023-04-14T06:35:50.135Z,44.00
2023-04-14T06:36:50.121Z,44.00
2023-04-14T06:37:50.123Z,44.00
2023-04-14T06:38:50.142Z,44.00
2023-04-14T06:39:50.134Z,44.00
2023-04-14T06:40:52.680Z,44.00
2023-04-14T06:41:50.128Z,44.00
2023-04-14T06:42:50.134Z,44.00
2023-04-14T06:43:50.139Z,44.00
2023-04-14T06:44:50.138Z,44.00
2023-04-14T06:45:50.182Z,44.00
2023-04-14T06:46:50.134Z,44.00
2023-04-14T06:47:50.260Z,44.00
2023-04-14T06:48:50.144Z,44.00
2023-04-14T06:49:50.140Z,44.00
2023-04-14T06:50:50.147Z,44.00
2023-04-14T06:51:50.160Z,44.00
2023-04-14T06:52:50.154Z,44.00
2023-04-14T06:53:50.162Z,44.00
2023-04-14T06:54:50.185Z,44.00
2023-04-14T06:55:50.156Z,44.00
2023-04-14T06:56:50.146Z,44.00
2023-04-14T06:57:50.157Z,44.00
2023-04-14T06:58:50.511Z,48.00
2023-04-14T06:59:50.160Z,48.00
2023-04-14T07:00:50.189Z,48.00
2023-04-14T07:01:50.220Z,48.00
2023-04-14T07:02:50.299Z,48.00
2023-04-14T07:03:50.160Z,48.00
2023-04-14T07:04:50.215Z,44.00
2023-04-14T07:05:50.174Z,48.00
2023-04-14T07:06:50.160Z,48.00
2023-04-14T07:07:50.165Z,48.00
2023-04-14T07:08:50.221Z,48.00
2023-04-14T07:09:50.167Z,48.00
2023-04-14T07:10:50.191Z,48.00
2023-04-14T07:11:50.171Z,48.00
2023-04-14T07:12:50.164Z,48.00
2023-04-14T07:13:50.176Z,52.00
2023-04-14T07:14:50.177Z,48.00
2023-04-14T07:15:50.185Z,48.00
2023-04-14T07:16:50.180Z,48.00
2023-04-14T07:17:50.231Z,52.00
2023-04-14T07:18:50.185Z,52.00
2023-04-14T07:19:50.184Z,52.00
2023-04-14T07:20:50.182Z,52.00
2023-04-14T07:21:50.178Z,56.00
2023-04-14T07:22:50.187Z,56.00
2023-04-14T07:23:50.190Z,56.00
2023-04-14T07:24:50.192Z,56.00
2023-04-14T07:25:50.189Z,56.00
2023-04-14T07:26:50.223Z,60.00
2023-04-14T07:28:02.686Z,60.00
2023-04-14T07:28:50.242Z,60.00
2023-04-14T07:29:50.210Z,60.00
2023-04-14T07:30:50.285Z,64.00
2023-04-14T07:31:50.558Z,60.00
2023-04-14T07:32:50.225Z,60.00
2023-04-14T07:33:50.197Z,64.00
2023-04-14T07:34:50.207Z,60.00
2023-04-14T07:36:01.391Z,64.00
2023-04-14T07:36:50.213Z,64.00
2023-04-14T07:37:50.206Z,64.00
2023-04-14T07:38:50.395Z,68.00
2023-04-14T07:39:50.225Z,68.00
2023-04-14T07:40:50.215Z,68.00
2023-04-14T07:41:50.219Z,68.00
2023-04-14T07:42:50.246Z,72.00
2023-04-14T07:43:50.224Z,72.00
2023-04-14T07:44:50.222Z,72.00
2023-04-14T07:45:50.277Z,72.00
2023-04-14T07:46:50.239Z,68.00
2023-04-14T07:47:50.270Z,68.00
2023-04-14T07:48:50.424Z,72.00
2023-04-14T07:49:50.241Z,72.00
2023-04-14T07:50:50.255Z,72.00
2023-04-14T07:51:50.235Z,72.00
2023-04-14T07:52:50.231Z,72.00
2023-04-14T07:53:50.237Z,76.00
2023-04-14T07:54:50.242Z,72.00
2023-04-14T07:55:50.241Z,72.00
2023-04-14T07:56:50.251Z,72.00
2023-04-14T07:57:50.248Z,76.00
2023-04-14T07:58:50.278Z,72.00
2023-04-14T07:59:50.249Z,72.00
2023-04-14T08:00:50.249Z,76.00
2023-04-14T08:01:50.331Z,72.00
2023-04-14T08:02:50.507Z,76.00
2023-04-14T08:03:50.471Z,76.00
2023-04-14T08:04:50.278Z,80.00
2023-04-14T08:05:50.358Z,80.00
2023-04-14T08:06:50.268Z,80.00
2023-04-14T08:07:50.259Z,80.00
2023-04-14T08:08:50.254Z,80.00
2023-04-14T08:09:50.258Z,84.00
2023-04-14T08:10:50.272Z,84.00
2023-04-14T08:11:50.271Z,84.00
2023-04-14T08:12:50.274Z,88.00
2023-04-14T08:13:50.266Z,88.00
2023-04-14T08:14:50.292Z,88.00
2023-04-14T08:15:50.343Z,88.00
2023-04-14T08:16:50.381Z,92.00
2023-04-14T08:17:50.346Z,92.00
2023-04-14T08:18:50.280Z,96.00
2023-04-14T08:19:50.283Z,96.00
2023-04-14T08:20:50.299Z,96.00
2023-04-14T08:21:50.280Z,100.00
2023-04-14T08:22:50.283Z,100.00
2023-04-14T08:23:50.285Z,100.00
2023-04-14T08:24:50.289Z,104.00
2023-04-14T08:25:50.306Z,104.00
2023-04-14T08:26:50.290Z,104.00
2023-04-14T08:27:50.293Z,108.00
2023-04-14T08:28:50.293Z,108.00
2023-04-14T08:29:50.293Z,112.00
2023-04-14T08:30:50.334Z,112.00
2023-04-14T08:31:50.315Z,112.00
2023-04-14T08:32:50.362Z,120.00
2023-04-14T08:33:50.306Z,124.00
2023-04-14T08:35:39.930Z,120.00
2023-04-14T08:35:59.502Z,124.00
2023-04-14T08:36:52.398Z,128.00
2023-04-14T08:37:50.317Z,132.00
2023-04-14T08:38:50.313Z,132.00
2023-04-14T08:39:50.314Z,136.00
2023-04-14T08:40:50.309Z,140.00
2023-04-14T08:41:50.314Z,152.00
2023-04-14T08:42:50.309Z,156.00
2023-04-14T08:43:50.326Z,164.00
2023-04-14T08:44:50.332Z,164.00
2023-04-14T08:45:50.376Z,168.00
2023-04-14T08:46:50.351Z,164.00
2023-04-14T08:47:50.402Z,164.00
2023-04-14T08:48:50.347Z,164.00
2023-04-14T08:49:50.342Z,172.00
2023-04-14T08:50:50.343Z,176.00
2023-04-14T08:51:50.343Z,184.00
2023-04-14T08:52:50.338Z,188.00
2023-04-14T08:53:50.349Z,200.00
2023-04-14T08:54:50.377Z,208.00
2023-04-14T08:55:50.349Z,220.00
2023-04-14T08:56:50.357Z,232.00
2023-04-14T08:57:50.359Z,240.00
2023-04-14T08:58:50.363Z,252.00
2023-04-14T08:59:50.354Z,268.00
2023-04-14T09:00:50.380Z,284.00
2023-04-14T09:01:50.480Z,312.00
2023-04-14T09:02:50.592Z,344.00
2023-04-14T09:03:50.572Z,388.00
2023-04-14T09:04:50.452Z,440.00
2023-04-14T09:05:50.365Z,504.00
2023-04-14T09:06:50.372Z,584.00
2023-04-14T09:07:50.370Z,668.00
2023-04-14T09:08:50.378Z,756.00
2023-04-14T09:09:50.380Z,836.00
2023-04-14T09:10:50.380Z,884.00
2023-04-14T09:11:50.383Z,920.00
2023-04-14T09:12:50.393Z,936.00
2023-04-14T09:13:50.531Z,932.00
2023-04-14T09:14:50.394Z,904.00
2023-04-14T09:15:50.399Z,840.00
2023-04-14T09:16:50.466Z,732.00
2023-04-14T09:17:50.456Z,588.00
2023-04-14T09:18:50.650Z,452.00
2023-04-14T09:20:36.655Z,364.00
2023-04-14T09:21:34.139Z,340.00
2023-04-14T09:21:54.256Z,324.00
2023-04-14T09:22:50.422Z,312.00
2023-04-14T09:23:50.432Z,308.00
2023-04-14T09:24:50.435Z,308.00
2023-04-14T09:25:50.439Z,304.00
2023-04-14T09:26:50.446Z,312.00
2023-04-14T09:27:50.456Z,332.00
2023-04-14T09:28:50.468Z,368.00
2023-04-14T09:29:50.457Z,420.00
2023-04-14T09:30:50.470Z,484.00
2023-04-14T09:31:50.573Z,544.00
2023-04-14T09:32:50.542Z,612.00
2023-04-14T09:33:50.806Z,708.00
2023-04-14T09:34:50.531Z,856.00
2023-04-14T09:35:50.501Z,1044.00
2023-04-14T09:36:50.492Z,1288.00
2023-04-14T09:37:50.507Z,1572.00
2023-04-14T09:38:50.507Z,1836.00
2023-04-14T09:39:50.501Z,2084.00
2023-04-14T09:40:50.503Z,2296.00
2023-04-14T09:41:50.587Z,2464.00
2023-04-14T09:42:50.524Z,2580.00
2023-04-14T09:43:50.541Z,2652.00
2023-04-14T09:44:50.516Z,2716.00
2023-04-14T09:45:50.545Z,2776.00
2023-04-14T09:46:50.545Z,2804.00
2023-04-14T09:47:50.642Z,2816.00
2023-04-14T09:48:50.548Z,2872.00
2023-04-14T09:49:50.537Z,2884.00
2023-04-14T09:50:50.561Z,2872.00
2023-04-14T09:51:50.637Z,2884.00
2023-04-14T09:52:50.563Z,2892.00
2023-04-14T09:53:50.633Z,2888.00
2023-04-14T09:54:50.582Z,2780.00
2023-04-14T09:55:50.580Z,2644.00
2023-04-14T09:56:50.615Z,2460.00
2023-04-14T09:57:50.562Z,2316.00
2023-04-14T09:58:50.570Z,2216.00
2023-04-14T09:59:50.580Z,2128.00
2023-04-14T10:00:50.581Z,2028.00
2023-04-14T10:01:50.733Z,1940.00
2023-04-14T10:02:50.664Z,1856.00
2023-04-14T10:03:50.730Z,1784.00
2023-04-14T10:04:50.633Z,1692.00
2023-04-14T10:05:50.593Z,1600.00
2023-04-14T10:06:50.659Z,1512.00
2023-04-14T10:07:50.612Z,1400.00
2023-04-14T10:08:50.684Z,1308.00
2023-04-14T10:09:50.621Z,1208.00
2023-04-14T10:10:50.616Z,1116.00
2023-04-14T10:11:50.618Z,1020.00
2023-04-14T10:12:50.625Z,924.00
2023-04-14T10:13:50.677Z,840.00
2023-04-14T10:14:50.659Z,752.00
2023-04-14T10:15:50.658Z,672.00
2023-04-14T10:16:50.654Z,596.00
2023-04-14T10:17:50.729Z,560.00
2023-04-14T10:18:50.656Z,516.00
2023-04-14T10:19:50.664Z,468.00
2023-04-14T10:20:50.659Z,388.00
2023-04-14T10:21:50.664Z,340.00
2023-04-14T10:22:50.730Z,304.00
2023-04-14T10:23:50.680Z,288.00
2023-04-14T10:24:50.681Z,280.00
2023-04-14T10:25:50.678Z,256.00
2023-04-14T10:26:50.683Z,244.00
2023-04-14T10:27:50.688Z,224.00
2023-04-14T10:28:50.996Z,240.00
2023-04-14T10:29:50.703Z,248.00
2023-04-14T10:30:50.707Z,244.00
2023-04-14T10:31:50.715Z,252.00
2023-04-14T10:32:50.754Z,252.00
2023-04-14T10:33:50.718Z,232.00
2023-04-14T10:34:50.719Z,256.00
2023-04-14T10:35:50.727Z,244.00
2023-04-14T10:36:50.723Z,244.00
2023-04-14T10:37:50.731Z,232.00
2023-04-14T10:38:50.754Z,228.00
2023-04-14T10:39:50.736Z,224.00
2023-04-14T10:40:50.742Z,220.00
2023-04-14T10:41:50.752Z,220.00
2023-04-14T10:42:50.767Z,216.00
2023-04-14T10:43:51.051Z,212.00
2023-04-14T10:44:50.756Z,212.00
2023-04-14T10:45:50.763Z,208.00
2023-04-14T10:46:50.784Z,208.00
2023-04-14T10:47:50.842Z,208.00
2023-04-14T10:48:50.771Z,208.00
2023-04-14T10:49:50.777Z,204.00
2023-04-14T10:50:50.786Z,204.00
2023-04-14T10:51:50.818Z,204.00
2023-04-14T10:52:50.788Z,204.00
2023-04-14T10:53:50.787Z,200.00
2023-04-14T10:54:50.821Z,204.00
2023-04-14T10:55:52.458Z,204.00
2023-04-14T10:56:50.804Z,200.00
2023-04-14T10:57:50.818Z,200.00
2023-04-14T10:58:50.808Z,200.00
2023-04-14T10:59:50.813Z,200.00
2023-04-14T11:00:50.846Z,196.00
2023-04-14T11:01:50.871Z,200.00
2023-04-14T11:02:50.960Z,192.00
2023-04-14T11:03:51.193Z,196.00
2023-04-14T11:04:50.831Z,192.00
2023-04-14T11:05:50.833Z,192.00
2023-04-14T11:06:50.837Z,188.00
2023-04-14T11:07:50.840Z,188.00
2023-04-14T11:08:50.841Z,188.00
2023-04-14T11:09:50.846Z,188.00
2023-04-14T11:10:50.881Z,188.00
2023-04-14T11:11:50.850Z,184.00
2023-04-14T11:12:50.864Z,184.00
2023-04-14T11:13:50.857Z,184.00
2023-04-14T11:14:50.862Z,180.00
2023-04-14T11:15:50.897Z,180.00
2023-04-14T11:17:02.787Z,180.00
2023-04-14T11:17:50.926Z,180.00
2023-04-14T11:18:50.880Z,176.00
2023-04-14T11:19:50.880Z,172.00
2023-04-14T11:20:50.886Z,176.00
2023-04-14T11:21:50.884Z,172.00
2023-04-14T11:22:50.887Z,172.00
2023-04-14T11:23:50.893Z,172.00
2023-04-14T11:24:50.932Z,164.00
2023-04-14T11:25:50.906Z,168.00
2023-04-14T11:26:50.923Z,168.00
2023-04-14T11:27:50.905Z,164.00
2023-04-14T11:28:50.976Z,160.00
2023-04-14T11:29:50.910Z,160.00
2023-04-14T11:30:50.917Z,160.00
2023-04-14T11:31:50.963Z,160.00
2023-04-14T11:32:51.127Z,160.00
2023-04-14T11:33:50.936Z,156.00
2023-04-14T11:34:50.933Z,156.00
2023-04-14T11:35:50.935Z,156.00
2023-04-14T11:36:50.940Z,156.00
2023-04-14T11:37:50.977Z,152.00
2023-04-14T11:38:50.950Z,152.00
2023-04-14T11:39:50.945Z,152.00
2023-04-14T11:40:50.960Z,148.00
2023-04-14T11:41:50.958Z,148.00
2023-04-14T11:42:50.982Z,148.00
2023-04-14T11:43:50.960Z,144.00
2023-04-14T11:44:50.970Z,144.00
2023-04-14T11:45:50.995Z,144.00
2023-04-14T11:46:50.974Z,144.00
2023-04-14T11:47:50.986Z,144.00
2023-04-14T11:48:50.980Z,140.00
2023-04-14T11:49:50.985Z,140.00
2023-04-14T11:50:50.984Z,140.00
2023-04-14T11:51:50.989Z,140.00
2023-04-14T11:52:50.992Z,136.00
2023-04-14T11:53:50.989Z,136.00
2023-04-14T11:54:51.030Z,136.00
2023-04-14T11:55:50.998Z,132.00
2023-04-14T11:56:51.018Z,136.00
2023-04-14T11:57:51.007Z,132.00
2023-04-14T11:58:51.039Z,132.00
2023-04-14T11:59:51.028Z,128.00
2023-04-14T12:00:52.039Z,128.00
2023-04-14T12:01:51.058Z,128.00
2023-04-14T12:02:51.194Z,124.00
2023-04-14T12:03:51.087Z,124.00
2023-04-14T12:04:51.272Z,124.00
2023-04-14T12:05:51.040Z,124.00
2023-04-14T12:06:51.902Z,124.00
2023-04-14T12:07:51.044Z,124.00
2023-04-14T12:08:51.054Z,124.00
2023-04-14T12:09:51.052Z,124.00
2023-04-14T12:10:51.061Z,124.00
2023-04-14T12:11:51.059Z,120.00
2023-04-14T12:12:51.059Z,120.00
2023-04-14T12:13:51.107Z,116.00
2023-04-14T12:14:51.092Z,120.00
2023-04-14T12:15:51.120Z,120.00
2023-04-14T12:16:51.076Z,120.00
2023-04-14T12:17:51.162Z,116.00
2023-04-14T12:18:51.084Z,116.00
2023-04-14T12:19:51.087Z,116.00
2023-04-14T12:20:51.092Z,116.00
2023-04-14T12:21:51.093Z,116.00
2023-04-14T12:22:51.094Z,116.00
2023-04-14T12:23:51.153Z,112.00
2023-04-14T12:24:51.102Z,112.00
2023-04-14T12:25:51.105Z,112.00
2023-04-14T12:26:51.110Z,112.00
2023-04-14T12:27:51.117Z,112.00
2023-04-14T12:28:51.113Z,112.00
2023-04-14T12:29:51.120Z,108.00
2023-04-14T12:30:51.143Z,108.00
2023-04-14T12:31:51.141Z,108.00
2023-04-14T12:32:51.156Z,108.00
2023-04-14T12:33:51.136Z,108.00
2023-04-14T12:34:51.133Z,104.00
2023-04-14T12:35:51.135Z,104.00
2023-04-14T12:36:51.208Z,104.00
2023-04-14T12:37:51.139Z,104.00
2023-04-14T12:38:51.148Z,100.00
2023-04-14T12:39:51.160Z,100.00
2023-04-14T12:40:51.149Z,100.00
2023-04-14T12:41:51.161Z,96.00
2023-04-14T12:42:51.160Z,92.00
2023-04-14T12:43:51.171Z,92.00
2023-04-14T12:44:51.176Z,92.00
2023-04-14T12:45:51.169Z,92.00
2023-04-14T12:46:51.235Z,92.00
2023-04-14T12:47:51.193Z,88.00
2023-04-14T12:48:51.177Z,84.00
2023-04-14T12:49:51.196Z,84.00
2023-04-14T12:50:51.919Z,88.00
2023-04-14T12:51:51.192Z,80.00
2023-04-14T12:52:51.185Z,80.00